sensor_id;sensor_type;location;lat;lon;timestamp;temperature;humidity
39677;DHT22;27789;50.840;4.386;2023-08-24T00:01:54;22.30;99.90
39677;DHT22;27789;50.840;4.386;2023-08-24T00:04:20;22.20;99.90
39677;DHT22;27789;50.840;4.386;2023-08-24T00:06:45;22.20;99.90
39677;DHT22;27789;50.840;4.386;2023-08-24T00:09:11;22.20;99.90
39677;DHT22;27789;50.840;4.386;2023-08-24T00:11:37;22.20;99.90
39677;DHT22;27789;50.840;4.386;2023-08-24T00:14:02;22.20;99.90
39677;DHT22;27789;50.840;4.386;2023-08-24T00:16:28;22.10;99.90
39677;DHT22;27789;50.840;4.386;2023-08-24T00:18:54;22.20;99.90
39677;DHT22;27789;50.840;4.386;2023-08-24T00:21:19;22.20;99.90
39677;DHT22;27789;50.840;4.386;2023-08-24T00:23:48;22.20;99.90
39677;DHT22;27789;50.840;4.386;2023-08-24T00:26:13;22.10;99.90
39677;DHT22;27789;50.840;4.386;2023-08-24T00:28:42;22.20;99.90
39677;DHT22;27789;50.840;4.386;2023-08-24T00:31:08;22.20;99.90
39677;DHT22;27789;50.840;4.386;2023-08-24T00:33:33;22.20;99.90
39677;DHT22;27789;50.840;4.386;2023-08-24T00:35:59;22.30;99.90
39677;DHT22;27789;50.840;4.386;2023-08-24T00:38:25;22.20;99.90
39677;DHT22;27789;50.840;4.386;2023-08-24T00:40:51;22.20;99.90
39677;DHT22;27789;50.840;4.386;2023-08-24T00:43:18;22.20;99.90
39677;DHT22;27789;50.840;4.386;2023-08-24T00:45:47;22.20;99.90
39677;DHT22;27789;50.840;4.386;2023-08-24T00:48:12;22.10;99.90
39677;DHT22;27789;50.840;4.386;2023-08-24T00:50:38;22.10;99.90
39677;DHT22;27789;50.840;4.386;2023-08-24T00:53:03;22.00;99.90
39677;DHT22;27789;50.840;4.386;2023-08-24T00:55:29;22.00;99.90
39677;DHT22;27789;50.840;4.386;2023-08-24T00:57:55;22.00;99.90
39677;DHT22;27789;50.840;4.386;2023-08-24T01:00:21;22.00;99.90
39677;DHT22;27789;50.840;4.386;2023-08-24T01:02:47;22.10;99.90
39677;DHT22;27789;50.840;4.386;2023-08-24T01:05:12;22.10;99.90
39677;DHT22;27789;50.840;4.386;2023-08-24T01:07:39;22.10;99.90
39677;DHT22;27789;50.840;4.386;2023-08-24T01:10:05;22.20;99.90
39677;DHT22;27789;50.840;4.386;2023-08-24T01:15:13;22.20;99.90
39677;DHT22;27789;50.840;4.386;2023-08-24T01:17:39;22.20;99.90
39677;DHT22;27789;50.840;4.386;2023-08-24T01:20:07;22.20;99.90
39677;DHT22;27789;50.840;4.386;2023-08-24T01:22:44;22.20;99.90
39677;DHT22;27789;50.840;4.386;2023-08-24T01:25:32;22.20;99.90
39677;DHT22;27789;50.840;4.386;2023-08-24T01:28:00;22.20;99.90
39677;DHT22;27789;50.840;4.386;2023-08-24T01:30:28;22.20;99.90
39677;DHT22;27789;50.840;4.386;2023-08-24T01:32:56;22.20;99.90
39677;DHT22;27789;50.840;4.386;2023-08-24T01:35:21;22.20;99.90
39677;DHT22;27789;50.840;4.386;2023-08-24T01:37:47;22.20;99.90
39677;DHT22;27789;50.840;4.386;2023-08-24T01:40:13;22.20;99.90
39677;DHT22;27789;50.840;4.386;2023-08-24T01:45:18;22.20;99.90
39677;DHT22;27789;50.840;4.386;2023-08-24T01:47:45;22.20;99.90
39677;DHT22;27789;50.840;4.386;2023-08-24T01:50:12;22.20;99.90
39677;DHT22;27789;50.840;4.386;2023-08-24T01:52:37;22.20;99.90
39677;DHT22;27789;50.840;4.386;2023-08-24T01:55:03;22.10;99.90
39677;DHT22;27789;50.840;4.386;2023-08-24T01:57:29;22.20;99.90
39677;DHT22;27789;50.840;4.386;2023-08-24T01:59:55;22.10;99.90
39677;DHT22;27789;50.840;4.386;2023-08-24T02:02:20;22.10;99.90
39677;DHT22;27789;50.840;4.386;2023-08-24T02:04:46;22.10;99.90
39677;DHT22;27789;50.840;4.386;2023-08-24T02:07:11;22.10;99.90
39677;DHT22;27789;50.840;4.386;2023-08-24T02:09:37;22.10;99.90
39677;DHT22;27789;50.840;4.386;2023-08-24T02:12:02;22.00;99.90
39677;DHT22;27789;50.840;4.386;2023-08-24T02:14:28;21.90;99.90
39677;DHT22;27789;50.840;4.386;2023-08-24T02:16:54;21.90;99.90
39677;DHT22;27789;50.840;4.386;2023-08-24T02:19:19;21.70;99.90
39677;DHT22;27789;50.840;4.386;2023-08-24T02:21:45;21.60;99.90
39677;DHT22;27789;50.840;4.386;2023-08-24T02:24:11;21.40;99.90
39677;DHT22;27789;50.840;4.386;2023-08-24T02:26:36;21.30;99.90
39677;DHT22;27789;50.840;4.386;2023-08-24T02:29:02;21.20;99.90
39677;DHT22;27789;50.840;4.386;2023-08-24T02:31:27;21.10;99.90
39677;DHT22;27789;50.840;4.386;2023-08-24T02:33:53;21.00;99.90
39677;DHT22;27789;50.840;4.386;2023-08-24T02:36:19;21.00;99.90
39677;DHT22;27789;50.840;4.386;2023-08-24T02:38:44;21.00;99.90
39677;DHT22;27789;50.840;4.386;2023-08-24T02:41:10;21.00;99.90
39677;DHT22;27789;50.840;4.386;2023-08-24T02:43:36;21.00;99.90
39677;DHT22;27789;50.840;4.386;2023-08-24T02:46:08;20.90;99.90
39677;DHT22;27789;50.840;4.386;2023-08-24T02:48:34;20.90;99.90
39677;DHT22;27789;50.840;4.386;2023-08-24T02:51:00;20.90;99.90
39677;DHT22;27789;50.840;4.386;2023-08-24T02:53:26;20.90;99.90
39677;DHT22;27789;50.840;4.386;2023-08-24T02:55:52;20.90;99.90
39677;DHT22;27789;50.840;4.386;2023-08-24T02:58:18;20.90;99.90
39677;DHT22;27789;50.840;4.386;2023-08-24T03:00:44;20.90;99.90
39677;DHT22;27789;50.840;4.386;2023-08-24T03:03:09;21.00;99.90
39677;DHT22;27789;50.840;4.386;2023-08-24T03:05:35;21.00;99.90
39677;DHT22;27789;50.840;4.386;2023-08-24T03:08:01;20.90;99.90
39677;DHT22;27789;50.840;4.386;2023-08-24T03:10:26;20.90;99.90
39677;DHT22;27789;50.840;4.386;2023-08-24T03:12:52;20.90;99.90
39677;DHT22;27789;50.840;4.386;2023-08-24T03:15:17;20.90;99.90
39677;DHT22;27789;50.840;4.386;2023-08-24T03:17:43;20.90;99.90
39677;DHT22;27789;50.840;4.386;2023-08-24T03:20:08;20.90;99.90
39677;DHT22;27789;50.840;4.386;2023-08-24T03:22:36;20.90;99.90
39677;DHT22;27789;50.840;4.386;2023-08-24T03:25:01;20.80;99.90
39677;DHT22;27789;50.840;4.386;2023-08-24T03:27:27;20.80;99.90
39677;DHT22;27789;50.840;4.386;2023-08-24T03:29:53;20.80;99.90
39677;DHT22;27789;50.840;4.386;2023-08-24T03:32:18;20.80;99.90
39677;DHT22;27789;50.840;4.386;2023-08-24T03:34:44;20.80;99.90
39677;DHT22;27789;50.840;4.386;2023-08-24T03:37:09;20.80;99.90
39677;DHT22;27789;50.840;4.386;2023-08-24T03:39:38;20.80;99.90
39677;DHT22;27789;50.840;4.386;2023-08-24T03:42:04;20.80;99.90
39677;DHT22;27789;50.840;4.386;2023-08-24T03:44:29;20.90;99.90
39677;DHT22;27789;50.840;4.386;2023-08-24T03:46:55;20.80;99.90
39677;DHT22;27789;50.840;4.386;2023-08-24T03:49:20;20.90;99.90
39677;DHT22;27789;50.840;4.386;2023-08-24T03:51:46;20.90;99.90
39677;DHT22;27789;50.840;4.386;2023-08-24T03:54:11;20.80;99.90
39677;DHT22;27789;50.840;4.386;2023-08-24T03:56:37;20.80;99.90
39677;DHT22;27789;50.840;4.386;2023-08-24T03:59:02;20.90;99.90
39677;DHT22;27789;50.840;4.386;2023-08-24T04:01:28;20.80;99.90
39677;DHT22;27789;50.840;4.386;2023-08-24T04:03:54;20.90;99.90
39677;DHT22;27789;50.840;4.386;2023-08-24T04:06:19;20.90;99.90
39677;DHT22;27789;50.840;4.386;2023-08-24T04:08:45;20.90;99.90
39677;DHT22;27789;50.840;4.386;2023-08-24T04:11:10;20.90;99.90
39677;DHT22;27789;50.840;4.386;2023-08-24T04:13:36;20.90;99.90
39677;DHT22;27789;50.840;4.386;2023-08-24T04:16:01;20.90;99.90
39677;DHT22;27789;50.840;4.386;2023-08-24T04:18:27;20.90;99.90
39677;DHT22;27789;50.840;4.386;2023-08-24T04:20:52;20.90;99.90
39677;DHT22;27789;50.840;4.386;2023-08-24T04:23:23;20.90;99.90
39677;DHT22;27789;50.840;4.386;2023-08-24T04:25:48;20.90;99.90
39677;DHT22;27789;50.840;4.386;2023-08-24T04:28:14;20.90;99.90
39677;DHT22;27789;50.840;4.386;2023-08-24T04:30:39;20.80;99.90
39677;DHT22;27789;50.840;4.386;2023-08-24T04:33:05;20.90;99.90
39677;DHT22;27789;50.840;4.386;2023-08-24T04:35:33;20.80;99.90
39677;DHT22;27789;50.840;4.386;2023-08-24T04:37:58;20.80;99.90
39677;DHT22;27789;50.840;4.386;2023-08-24T04:40:24;20.80;99.90
39677;DHT22;27789;50.840;4.386;2023-08-24T04:42:49;20.80;99.90
39677;DHT22;27789;50.840;4.386;2023-08-24T04:45:15;20.80;99.90
39677;DHT22;27789;50.840;4.386;2023-08-24T04:47:41;20.80;99.90
39677;DHT22;27789;50.840;4.386;2023-08-24T04:50:06;20.80;99.90
39677;DHT22;27789;50.840;4.386;2023-08-24T04:52:32;20.80;99.90
39677;DHT22;27789;50.840;4.386;2023-08-24T04:54:57;20.80;99.90
39677;DHT22;27789;50.840;4.386;2023-08-24T04:57:23;20.80;99.90
39677;DHT22;27789;50.840;4.386;2023-08-24T04:59:48;20.80;99.90
39677;DHT22;27789;50.840;4.386;2023-08-24T05:02:14;20.80;99.90
39677;DHT22;27789;50.840;4.386;2023-08-24T05:04:39;20.80;99.90
39677;DHT22;27789;50.840;4.386;2023-08-24T05:07:05;20.80;99.90
39677;DHT22;27789;50.840;4.386;2023-08-24T05:09:30;20.80;99.90
39677;DHT22;27789;50.840;4.386;2023-08-24T05:11:58;20.80;99.90
39677;DHT22;27789;50.840;4.386;2023-08-24T05:14:23;20.80;99.90
39677;DHT22;27789;50.840;4.386;2023-08-24T05:16:49;20.80;99.90
39677;DHT22;27789;50.840;4.386;2023-08-24T05:19:14;20.80;99.90
39677;DHT22;27789;50.840;4.386;2023-08-24T05:21:40;20.90;99.90
39677;DHT22;27789;50.840;4.386;2023-08-24T05:24:05;20.90;99.90
39677;DHT22;27789;50.840;4.386;2023-08-24T05:26:31;20.90;99.90
39677;DHT22;27789;50.840;4.386;2023-08-24T05:28:56;20.90;99.90
39677;DHT22;27789;50.840;4.386;2023-08-24T05:31:22;21.00;99.90
39677;DHT22;27789;50.840;4.386;2023-08-24T05:33:47;21.00;99.90
39677;DHT22;27789;50.840;4.386;2023-08-24T05:36:13;21.00;99.90
39677;DHT22;27789;50.840;4.386;2023-08-24T05:38:39;21.10;99.90
39677;DHT22;27789;50.840;4.386;2023-08-24T05:41:10;21.10;99.90
39677;DHT22;27789;50.840;4.386;2023-08-24T05:43:35;21.10;99.90
39677;DHT22;27789;50.840;4.386;2023-08-24T05:46:00;21.10;99.90
39677;DHT22;27789;50.840;4.386;2023-08-24T05:48:28;21.20;99.90
39677;DHT22;27789;50.840;4.386;2023-08-24T05:50:54;21.20;99.90
39677;DHT22;27789;50.840;4.386;2023-08-24T05:53:20;21.30;99.90
39677;DHT22;27789;50.840;4.386;2023-08-24T05:55:45;21.30;99.90
39677;DHT22;27789;50.840;4.386;2023-08-24T05:58:11;21.30;99.90
39677;DHT22;27789;50.840;4.386;2023-08-24T06:00:36;21.40;99.90
39677;DHT22;27789;50.840;4.386;2023-08-24T06:03:02;21.40;99.90
39677;DHT22;27789;50.840;4.386;2023-08-24T06:05:29;21.40;99.90
39677;DHT22;27789;50.840;4.386;2023-08-24T06:07:54;21.50;99.90
39677;DHT22;27789;50.840;4.386;2023-08-24T06:10:20;21.50;99.90
39677;DHT22;27789;50.840;4.386;2023-08-24T06:12:45;21.60;99.90
39677;DHT22;27789;50.840;4.386;2023-08-24T06:15:11;21.60;99.90
39677;DHT22;27789;50.840;4.386;2023-08-24T06:17:38;21.70;99.90
39677;DHT22;27789;50.840;4.386;2023-08-24T06:20:04;21.70;99.90
39677;DHT22;27789;50.840;4.386;2023-08-24T06:22:30;21.80;99.90
39677;DHT22;27789;50.840;4.386;2023-08-24T06:24:55;21.90;99.90
39677;DHT22;27789;50.840;4.386;2023-08-24T06:27:25;22.00;99.90
39677;DHT22;27789;50.840;4.386;2023-08-24T06:29:50;22.00;99.90
39677;DHT22;27789;50.840;4.386;2023-08-24T06:32:16;22.20;99.90
39677;DHT22;27789;50.840;4.386;2023-08-24T06:34:41;22.20;99.90
39677;DHT22;27789;50.840;4.386;2023-08-24T06:37:07;22.30;99.90
39677;DHT22;27789;50.840;4.386;2023-08-24T06:39:32;22.40;99.90
39677;DHT22;27789;50.840;4.386;2023-08-24T06:41:58;22.50;99.90
39677;DHT22;27789;50.840;4.386;2023-08-24T06:44:23;22.60;99.90
39677;DHT22;27789;50.840;4.386;2023-08-24T06:46:49;22.60;99.90
39677;DHT22;27789;50.840;4.386;2023-08-24T06:49:15;22.70;99.90
39677;DHT22;27789;50.840;4.386;2023-08-24T06:51:40;22.80;99.90
39677;DHT22;27789;50.840;4.386;2023-08-24T06:54:06;22.90;99.90
39677;DHT22;27789;50.840;4.386;2023-08-24T06:56:32;22.90;99.90
39677;DHT22;27789;50.840;4.386;2023-08-24T06:58:57;23.10;99.90
39677;DHT22;27789;50.840;4.386;2023-08-24T07:01:23;23.10;99.90
39677;DHT22;27789;50.840;4.386;2023-08-24T07:03:51;23.20;99.90
39677;DHT22;27789;50.840;4.386;2023-08-24T07:06:16;23.20;99.90
39677;DHT22;27789;50.840;4.386;2023-08-24T07:08:42;23.30;99.90
39677;DHT22;27789;50.840;4.386;2023-08-24T07:11:07;23.40;99.90
39677;DHT22;27789;50.840;4.386;2023-08-24T07:13:33;23.50;99.90
39677;DHT22;27789;50.840;4.386;2023-08-24T07:15:58;23.60;99.90
39677;DHT22;27789;50.840;4.386;2023-08-24T07:18:24;23.80;99.90
39677;DHT22;27789;50.840;4.386;2023-08-24T07:20:49;23.90;99.90
39677;DHT22;27789;50.840;4.386;2023-08-24T07:23:15;23.90;99.90
39677;DHT22;27789;50.840;4.386;2023-08-24T07:25:40;24.00;99.90
39677;DHT22;27789;50.840;4.386;2023-08-24T07:28:06;24.10;99.90
39677;DHT22;27789;50.840;4.386;2023-08-24T07:30:32;24.10;99.90
39677;DHT22;27789;50.840;4.386;2023-08-24T07:32:57;24.20;99.90
39677;DHT22;27789;50.840;4.386;2023-08-24T07:35:23;24.20;99.90
39677;DHT22;27789;50.840;4.386;2023-08-24T07:37:53;24.20;99.90
39677;DHT22;27789;50.840;4.386;2023-08-24T07:40:18;24.30;99.90
39677;DHT22;27789;50.840;4.386;2023-08-24T07:45:09;24.40;99.90
39677;DHT22;27789;50.840;4.386;2023-08-24T07:47:35;24.40;99.90
39677;DHT22;27789;50.840;4.386;2023-08-24T07:50:00;24.50;99.90
39677;DHT22;27789;50.840;4.386;2023-08-24T07:52:26;24.50;99.90
39677;DHT22;27789;50.840;4.386;2023-08-24T07:54:54;24.60;99.90
39677;DHT22;27789;50.840;4.386;2023-08-24T07:57:20;24.50;99.90
39677;DHT22;27789;50.840;4.386;2023-08-24T07:59:46;24.60;99.90
39677;DHT22;27789;50.840;4.386;2023-08-24T08:02:12;24.60;99.90
39677;DHT22;27789;50.840;4.386;2023-08-24T08:04:37;24.60;99.90
39677;DHT22;27789;50.840;4.386;2023-08-24T08:07:03;24.60;99.90
39677;DHT22;27789;50.840;4.386;2023-08-24T08:09:28;24.60;99.90
39677;DHT22;27789;50.840;4.386;2023-08-24T08:11:53;24.60;99.90
39677;DHT22;27789;50.840;4.386;2023-08-24T08:14:19;24.60;99.90
39677;DHT22;27789;50.840;4.386;2023-08-24T08:16:45;24.60;99.90
39677;DHT22;27789;50.840;4.386;2023-08-24T08:19:11;24.60;99.90
39677;DHT22;27789;50.840;4.386;2023-08-24T08:21:36;24.60;99.90
39677;DHT22;27789;50.840;4.386;2023-08-24T08:24:02;24.70;99.90
39677;DHT22;27789;50.840;4.386;2023-08-24T08:26:27;24.70;99.90
39677;DHT22;27789;50.840;4.386;2023-08-24T08:28:53;24.70;99.90
39677;DHT22;27789;50.840;4.386;2023-08-24T08:31:18;24.70;99.90
39677;DHT22;27789;50.840;4.386;2023-08-24T08:33:44;24.80;99.90
39677;DHT22;27789;50.840;4.386;2023-08-24T08:36:10;24.80;99.90
39677;DHT22;27789;50.840;4.386;2023-08-24T08:38:35;24.80;99.90
39677;DHT22;27789;50.840;4.386;2023-08-24T08:41:04;24.90;99.90
39677;DHT22;27789;50.840;4.386;2023-08-24T08:43:29;24.90;99.90
39677;DHT22;27789;50.840;4.386;2023-08-24T08:45:55;25.00;99.90
39677;DHT22;27789;50.840;4.386;2023-08-24T08:48:21;25.00;99.90
39677;DHT22;27789;50.840;4.386;2023-08-24T08:50:49;25.00;99.90
39677;DHT22;27789;50.840;4.386;2023-08-24T08:53:15;25.10;99.90
39677;DHT22;27789;50.840;4.386;2023-08-24T08:55:41;25.10;99.90
39677;DHT22;27789;50.840;4.386;2023-08-24T08:58:07;25.10;99.90
39677;DHT22;27789;50.840;4.386;2023-08-24T09:00:33;25.10;99.90
39677;DHT22;27789;50.840;4.386;2023-08-24T09:02:59;25.10;99.90
39677;DHT22;27789;50.840;4.386;2023-08-24T09:05:25;25.00;99.90
39677;DHT22;27789;50.840;4.386;2023-08-24T09:07:51;25.10;99.90
39677;DHT22;27789;50.840;4.386;2023-08-24T09:10:18;25.00;99.90
39677;DHT22;27789;50.840;4.386;2023-08-24T09:12:44;25.00;99.90
39677;DHT22;27789;50.840;4.386;2023-08-24T09:15:09;25.00;99.90
39677;DHT22;27789;50.840;4.386;2023-08-24T09:17:35;24.90;99.90
39677;DHT22;27789;50.840;4.386;2023-08-24T09:20:06;24.80;99.90
39677;DHT22;27789;50.840;4.386;2023-08-24T09:22:40;24.70;99.90
39677;DHT22;27789;50.840;4.386;2023-08-24T09:25:09;24.60;99.90
39677;DHT22;27789;50.840;4.386;2023-08-24T09:27:34;24.50;99.90
39677;DHT22;27789;50.840;4.386;2023-08-24T09:30:00;24.50;99.90
39677;DHT22;27789;50.840;4.386;2023-08-24T09:32:28;24.50;99.90
39677;DHT22;27789;50.840;4.386;2023-08-24T09:35:03;24.50;99.90
39677;DHT22;27789;50.840;4.386;2023-08-24T09:37:33;24.50;99.90
39677;DHT22;27789;50.840;4.386;2023-08-24T09:40:02;24.40;99.90
39677;DHT22;27789;50.840;4.386;2023-08-24T09:42:40;24.10;99.90
39677;DHT22;27789;50.840;4.386;2023-08-24T09:45:06;23.90;99.90
39677;DHT22;27789;50.840;4.386;2023-08-24T09:47:35;23.60;99.90
39677;DHT22;27789;50.840;4.386;2023-08-24T09:50:01;23.30;99.90
39677;DHT22;27789;50.840;4.386;2023-08-24T09:52:27;22.90;99.90
39677;DHT22;27789;50.840;4.386;2023-08-24T09:54:55;22.80;99.90
39677;DHT22;27789;50.840;4.386;2023-08-24T09:57:21;22.70;99.90
39677;DHT22;27789;50.840;4.386;2023-08-24T09:59:47;22.50;99.90
39677;DHT22;27789;50.840;4.386;2023-08-24T10:02:15;22.40;99.90
39677;DHT22;27789;50.840;4.386;2023-08-24T10:04:41;22.30;99.90
39677;DHT22;27789;50.840;4.386;2023-08-24T10:07:08;22.20;99.90
39677;DHT22;27789;50.840;4.386;2023-08-24T10:12:23;21.90;99.90
39677;DHT22;27789;50.840;4.386;2023-08-24T10:14:53;21.90;99.90
39677;DHT22;27789;50.840;4.386;2023-08-24T10:17:19;21.70;99.90
39677;DHT22;27789;50.840;4.386;2023-08-24T10:19:44;21.60;99.90
39677;DHT22;27789;50.840;4.386;2023-08-24T10:22:12;21.50;99.90
39677;DHT22;27789;50.840;4.386;2023-08-24T10:24:37;21.50;99.90
39677;DHT22;27789;50.840;4.386;2023-08-24T10:27:03;21.60;99.90
39677;DHT22;27789;50.840;4.386;2023-08-24T10:29:29;21.70;99.90
39677;DHT22;27789;50.840;4.386;2023-08-24T10:31:55;21.70;99.90
39677;DHT22;27789;50.840;4.386;2023-08-24T10:34:21;21.80;99.90
39677;DHT22;27789;50.840;4.386;2023-08-24T10:36:49;21.80;99.90
39677;DHT22;27789;50.840;4.386;2023-08-24T10:39:16;21.90;99.90
39677;DHT22;27789;50.840;4.386;2023-08-24T10:41:46;21.90;99.90
39677;DHT22;27789;50.840;4.386;2023-08-24T10:44:13;21.90;99.90
39677;DHT22;27789;50.840;4.386;2023-08-24T10:46:44;22.00;99.90
39677;DHT22;27789;50.840;4.386;2023-08-24T10:49:29;22.10;99.90
39677;DHT22;27789;50.840;4.386;2023-08-24T10:51:55;22.10;99.90
39677;DHT22;27789;50.840;4.386;2023-08-24T10:54:29;22.10;99.90
39677;DHT22;27789;50.840;4.386;2023-08-24T10:56:55;22.10;99.90
39677;DHT22;27789;50.840;4.386;2023-08-24T10:59:23;22.10;99.90
39677;DHT22;27789;50.840;4.386;2023-08-24T11:04:17;22.20;99.90
39677;DHT22;27789;50.840;4.386;2023-08-24T11:06:53;22.30;99.90
39677;DHT22;27789;50.840;4.386;2023-08-24T11:09:18;22.30;99.90
39677;DHT22;27789;50.840;4.386;2023-08-24T11:12:02;22.20;99.90
39677;DHT22;27789;50.840;4.386;2023-08-24T11:14:28;22.10;99.90
39677;DHT22;27789;50.840;4.386;2023-08-24T11:17:16;22.10;99.90
39677;DHT22;27789;50.840;4.386;2023-08-24T11:19:49;22.10;99.90
39677;DHT22;27789;50.840;4.386;2023-08-24T11:22:16;22.10;99.90
39677;DHT22;27789;50.840;4.386;2023-08-24T11:24:41;22.10;99.90
39677;DHT22;27789;50.840;4.386;2023-08-24T11:27:07;22.20;99.90
39677;DHT22;27789;50.840;4.386;2023-08-24T11:29:33;22.20;99.90
39677;DHT22;27789;50.840;4.386;2023-08-24T11:31:59;22.10;99.90
39677;DHT22;27789;50.840;4.386;2023-08-24T11:34:24;22.20;99.90
39677;DHT22;27789;50.840;4.386;2023-08-24T11:36:50;22.20;99.90
39677;DHT22;27789;50.840;4.386;2023-08-24T11:39:17;22.20;99.90
39677;DHT22;27789;50.840;4.386;2023-08-24T11:44:23;22.00;99.90
39677;DHT22;27789;50.840;4.386;2023-08-24T11:46:49;22.10;99.90
39677;DHT22;27789;50.840;4.386;2023-08-24T11:49:14;22.10;99.90
39677;DHT22;27789;50.840;4.386;2023-08-24T11:51:40;22.20;99.90
39677;DHT22;27789;50.840;4.386;2023-08-24T11:54:05;22.20;99.90
39677;DHT22;27789;50.840;4.386;2023-08-24T11:56:31;22.30;99.90
39677;DHT22;27789;50.840;4.386;2023-08-24T11:58:57;22.20;99.90
39677;DHT22;27789;50.840;4.386;2023-08-24T12:01:22;22.30;99.90
39677;DHT22;27789;50.840;4.386;2023-08-24T12:03:48;22.20;99.90
39677;DHT22;27789;50.840;4.386;2023-08-24T12:06:14;22.20;99.90
39677;DHT22;27789;50.840;4.386;2023-08-24T12:08:40;22.20;99.90
39677;DHT22;27789;50.840;4.386;2023-08-24T12:11:13;22.20;99.90
39677;DHT22;27789;50.840;4.386;2023-08-24T12:13:42;22.20;99.90
39677;DHT22;27789;50.840;4.386;2023-08-24T12:16:08;22.30;99.90
39677;DHT22;27789;50.840;4.386;2023-08-24T12:18:46;22.30;99.90
39677;DHT22;27789;50.840;4.386;2023-08-24T12:21:12;22.30;99.90
39677;DHT22;27789;50.840;4.386;2023-08-24T12:23:38;22.20;99.90
39677;DHT22;27789;50.840;4.386;2023-08-24T12:26:04;22.10;99.90
39677;DHT22;27789;50.840;4.386;2023-08-24T12:28:32;22.10;99.90
39677;DHT22;27789;50.840;4.386;2023-08-24T12:30:58;22.00;99.90
39677;DHT22;27789;50.840;4.386;2023-08-24T12:33:27;22.00;99.90
39677;DHT22;27789;50.840;4.386;2023-08-24T12:35:54;22.00;99.90
39677;DHT22;27789;50.840;4.386;2023-08-24T12:38:20;21.90;99.90
39677;DHT22;27789;50.840;4.386;2023-08-24T12:40:46;21.80;99.90
39677;DHT22;27789;50.840;4.386;2023-08-24T12:43:12;21.90;99.90
39677;DHT22;27789;50.840;4.386;2023-08-24T12:45:37;21.80;99.90
39677;DHT22;27789;50.840;4.386;2023-08-24T12:48:03;21.70;99.90
39677;DHT22;27789;50.840;4.386;2023-08-24T12:50:29;21.60;99.90
39677;DHT22;27789;50.840;4.386;2023-08-24T12:52:54;21.60;99.90
39677;DHT22;27789;50.840;4.386;2023-08-24T12:55:27;21.50;99.90
39677;DHT22;27789;50.840;4.386;2023-08-24T12:57:52;21.50;99.90
39677;DHT22;27789;50.840;4.386;2023-08-24T13:00:18;21.40;99.90
39677;DHT22;27789;50.840;4.386;2023-08-24T13:02:44;21.40;99.90
39677;DHT22;27789;50.840;4.386;2023-08-24T13:05:09;21.40;99.90
39677;DHT22;27789;50.840;4.386;2023-08-24T13:07:35;21.40;99.90
39677;DHT22;27789;50.840;4.386;2023-08-24T13:10:02;21.40;99.90
39677;DHT22;27789;50.840;4.386;2023-08-24T13:12:28;21.40;99.90
39677;DHT22;27789;50.840;4.386;2023-08-24T13:14:53;21.50;99.90
39677;DHT22;27789;50.840;4.386;2023-08-24T13:17:19;21.50;99.90
39677;DHT22;27789;50.840;4.386;2023-08-24T13:19:44;21.50;99.90
39677;DHT22;27789;50.840;4.386;2023-08-24T13:22:10;21.50;99.90
39677;DHT22;27789;50.840;4.386;2023-08-24T13:24:36;21.50;99.90
39677;DHT22;27789;50.840;4.386;2023-08-24T13:27:01;21.50;99.90
39677;DHT22;27789;50.840;4.386;2023-08-24T13:29:28;21.50;99.90
39677;DHT22;27789;50.840;4.386;2023-08-24T13:31:53;21.50;99.90
39677;DHT22;27789;50.840;4.386;2023-08-24T13:34:19;21.50;99.90
39677;DHT22;27789;50.840;4.386;2023-08-24T13:36:44;21.50;99.90
39677;DHT22;27789;50.840;4.386;2023-08-24T13:39:10;21.50;99.90
39677;DHT22;27789;50.840;4.386;2023-08-24T13:41:36;21.50;99.90
39677;DHT22;27789;50.840;4.386;2023-08-24T13:44:02;21.50;99.90
39677;DHT22;27789;50.840;4.386;2023-08-24T13:46:27;21.50;99.90
39677;DHT22;27789;50.840;4.386;2023-08-24T13:48:53;21.50;99.90
39677;DHT22;27789;50.840;4.386;2023-08-24T13:51:19;21.60;99.90
39677;DHT22;27789;50.840;4.386;2023-08-24T13:53:44;21.60;99.90
39677;DHT22;27789;50.840;4.386;2023-08-24T13:56:10;21.60;99.90
39677;DHT22;27789;50.840;4.386;2023-08-24T13:58:35;21.60;99.90
39677;DHT22;27789;50.840;4.386;2023-08-24T14:01:01;21.60;99.90
39677;DHT22;27789;50.840;4.386;2023-08-24T14:03:28;21.60;99.90
39677;DHT22;27789;50.840;4.386;2023-08-24T14:05:56;21.60;99.90
39677;DHT22;27789;50.840;4.386;2023-08-24T14:08:22;21.60;99.90
39677;DHT22;27789;50.840;4.386;2023-08-24T14:10:48;21.60;99.90
39677;DHT22;27789;50.840;4.386;2023-08-24T14:13:14;21.70;99.90
39677;DHT22;27789;50.840;4.386;2023-08-24T14:15:39;21.70;99.90
39677;DHT22;27789;50.840;4.386;2023-08-24T14:18:05;21.70;99.90
39677;DHT22;27789;50.840;4.386;2023-08-24T14:20:30;21.70;99.90
39677;DHT22;27789;50.840;4.386;2023-08-24T14:22:56;21.80;99.90
39677;DHT22;27789;50.840;4.386;2023-08-24T14:25:22;21.80;99.90
39677;DHT22;27789;50.840;4.386;2023-08-24T14:27:47;21.80;99.90
39677;DHT22;27789;50.840;4.386;2023-08-24T14:30:13;21.80;99.90
39677;DHT22;27789;50.840;4.386;2023-08-24T14:32:39;21.80;99.90
39677;DHT22;27789;50.840;4.386;2023-08-24T14:35:04;21.90;99.90
39677;DHT22;27789;50.840;4.386;2023-08-24T14:37:30;22.00;99.90
39677;DHT22;27789;50.840;4.386;2023-08-24T14:39:56;22.00;99.90
39677;DHT22;27789;50.840;4.386;2023-08-24T14:42:21;22.00;99.90
39677;DHT22;27789;50.840;4.386;2023-08-24T14:44:47;22.10;99.90
39677;DHT22;27789;50.840;4.386;2023-08-24T14:47:12;22.20;99.90
39677;DHT22;27789;50.840;4.386;2023-08-24T14:49:38;22.20;99.90
39677;DHT22;27789;50.840;4.386;2023-08-24T14:52:03;22.20;99.90
39677;DHT22;27789;50.840;4.386;2023-08-24T14:54:29;22.20;99.90
39677;DHT22;27789;50.840;4.386;2023-08-24T14:56:54;22.30;99.90
39677;DHT22;27789;50.840;4.386;2023-08-24T14:59:21;22.40;99.90
39677;DHT22;27789;50.840;4.386;2023-08-24T15:01:46;22.40;99.90
39677;DHT22;27789;50.840;4.386;2023-08-24T15:04:12;22.50;99.90
39677;DHT22;27789;50.840;4.386;2023-08-24T15:06:37;22.50;99.90
39677;DHT22;27789;50.840;4.386;2023-08-24T15:09:03;22.50;99.90
39677;DHT22;27789;50.840;4.386;2023-08-24T15:11:29;22.50;99.90
39677;DHT22;27789;50.840;4.386;2023-08-24T15:13:54;22.50;99.90
39677;DHT22;27789;50.840;4.386;2023-08-24T15:16:20;22.60;99.90
39677;DHT22;27789;50.840;4.386;2023-08-24T15:18:45;22.60;99.90
39677;DHT22;27789;50.840;4.386;2023-08-24T15:21:11;22.60;99.90
39677;DHT22;27789;50.840;4.386;2023-08-24T15:23:36;22.60;99.90
39677;DHT22;27789;50.840;4.386;2023-08-24T15:26:02;22.60;99.90
39677;DHT22;27789;50.840;4.386;2023-08-24T15:28:35;22.70;99.90
39677;DHT22;27789;50.840;4.386;2023-08-24T15:31:01;22.70;99.90
39677;DHT22;27789;50.840;4.386;2023-08-24T15:33:26;22.80;99.90
39677;DHT22;27789;50.840;4.386;2023-08-24T15:35:52;22.80;99.90
39677;DHT22;27789;50.840;4.386;2023-08-24T15:38:17;22.90;99.90
39677;DHT22;27789;50.840;4.386;2023-08-24T15:40:43;23.00;99.90